sensor_id;sensor_type;location;lat;lon;timestamp;pressure;altitude;pressure_sealevel;temperature;humidity
13015;BME280;6573;57.696;11.950;2023-04-06T00:00:34;102068.00;;;6.79;100.00
13015;BME280;6573;57.696;11.950;2023-04-06T00:03:03;102057.78;;;6.60;100.00
13015;BME280;6573;57.696;11.950;2023-04-06T00:05:32;102073.59;;;6.37;100.00
13015;BME280;6573;57.696;11.950;2023-04-06T00:08:02;102072.19;;;5.98;100.00
13015;BME280;6573;57.696;11.950;2023-04-06T00:10:30;102063.75;;;6.05;100.00
13015;BME280;6573;57.696;11.950;2023-04-06T00:12:59;102063.19;;;5.90;100.00
13015;BME280;6573;57.696;11.950;2023-04-06T00:15:27;102025.41;;;5.80;100.00
13015;BME280;6573;57.696;11.950;2023-04-06T00:17:56;102045.44;;;6.30;100.00
13015;BME280;6573;57.696;11.950;2023-04-06T00:20:25;102056.53;;;6.48;100.00
13015;BME280;6573;57.696;11.950;2023-04-06T00:22:53;102061.13;;;6.30;100.00
13015;BME280;6573;57.696;11.950;2023-04-06T00:25:23;102057.91;;;6.37;100.00
13015;BME280;6573;57.696;11.950;2023-04-06T00:27:52;102062.63;;;6.22;100.00
13015;BME280;6573;57.696;11.950;2023-04-06T00:30:21;102034.81;;;6.01;100.00
13015;BME280;6573;57.696;11.950;2023-04-06T00:32:50;102040.53;;;5.89;100.00
13015;BME280;6573;57.696;11.950;2023-04-06T00:35:18;102039.50;;;5.62;100.00
13015;BME280;6573;57.696;11.950;2023-04-06T00:37:47;102016.25;;;5.68;100.00
13015;BME280;6573;57.696;11.950;2023-04-06T00:40:16;102056.81;;;5.83;100.00
13015;BME280;6573;57.696;11.950;2023-04-06T00:42:46;102050.22;;;5.93;100.00
13015;BME280;6573;57.696;11.950;2023-04-06T00:45:15;102043.38;;;5.95;100.00
13015;BME280;6573;57.696;11.950;2023-04-06T00:47:43;102051.94;;;6.16;100.00
13015;BME280;6573;57.696;11.950;2023-04-06T00:50:12;102046.81;;;6.19;100.00
13015;BME280;6573;57.696;11.950;2023-04-06T00:52:40;102043.53;;;6.00;100.00
13015;BME280;6573;57.696;11.950;2023-04-06T00:55:09;102041.38;;;5.66;100.00
13015;BME280;6573;57.696;11.950;2023-04-06T00:57:37;102044.63;;;5.82;100.00
13015;BME280;6573;57.696;11.950;2023-04-06T01:00:09;102038.25;;;5.76;100.00
13015;BME280;6573;57.696;11.950;2023-04-06T01:02:38;102029.50;;;5.74;100.00
13015;BME280;6573;57.696;11.950;2023-04-06T01:05:07;102041.06;;;6.04;100.00
13015;BME280;6573;57.696;11.950;2023-04-06T01:07:36;102033.06;;;6.00;100.00
13015;BME280;6573;57.696;11.950;2023-04-06T01:10:05;102031.25;;;5.97;100.00
13015;BME280;6573;57.696;11.950;2023-04-06T01:12:33;102029.13;;;5.87;100.00
13015;BME280;6573;57.696;11.950;2023-04-06T01:15:03;102028.06;;;5.82;100.00
13015;BME280;6573;57.696;11.950;2023-04-06T01:20:16;102034.94;;;5.80;100.00
13015;BME280;6573;57.696;11.950;2023-04-06T01:22:45;102030.53;;;5.79;100.00
13015;BME280;6573;57.696;11.950;2023-04-06T01:25:14;102023.50;;;5.53;100.00
13015;BME280;6573;57.696;11.950;2023-04-06T01:27:42;102025.28;;;5.77;100.00
13015;BME280;6573;57.696;11.950;2023-04-06T01:30:11;102026.19;;;5.78;100.00
13015;BME280;6573;57.696;11.950;2023-04-06T01:32:39;102035.38;;;5.45;100.00
13015;BME280;6573;57.696;11.950;2023-04-06T01:35:08;102029.47;;;5.27;100.00
13015;BME280;6573;57.696;11.950;2023-04-06T01:37:37;102028.28;;;5.18;100.00
13015;BME280;6573;57.696;11.950;2023-04-06T01:40:08;102020.34;;;5.15;100.00
13015;BME280;6573;57.696;11.950;2023-04-06T01:42:37;102014.06;;;4.88;100.00
13015;BME280;6573;57.696;11.950;2023-04-06T01:45:06;102019.28;;;4.88;100.00
13015;BME280;6573;57.696;11.950;2023-04-06T01:47:35;102017.97;;;4.99;100.00
13015;BME280;6573;57.696;11.950;2023-04-06T01:50:04;102028.66;;;5.05;100.00
13015;BME280;6573;57.696;11.950;2023-04-06T01:52:34;102005.19;;;4.83;100.00
13015;BME280;6573;57.696;11.950;2023-04-06T01:55:02;101985.25;;;4.63;100.00
13015;BME280;6573;57.696;11.950;2023-04-06T01:57:32;102017.38;;;4.84;100.00
13015;BME280;6573;57.696;11.950;2023-04-06T02:00:02;101993.72;;;4.80;100.00
13015;BME280;6573;57.696;11.950;2023-04-06T02:02:30;102025.44;;;5.12;100.00
13015;BME280;6573;57.696;11.950;2023-04-06T02:04:59;102018.09;;;5.02;100.00
13015;BME280;6573;57.696;11.950;2023-04-06T02:07:28;102028.28;;;4.96;100.00
13015;BME280;6573;57.696;11.950;2023-04-06T02:09:56;102019.50;;;4.94;100.00
13015;BME280;6573;57.696;11.950;2023-04-06T02:12:25;102019.97;;;5.06;100.00
13015;BME280;6573;57.696;11.950;2023-04-06T02:14:55;102021.25;;;5.16;100.00
13015;BME280;6573;57.696;11.950;2023-04-06T02:17:23;102021.44;;;4.98;100.00
13015;BME280;6573;57.696;11.950;2023-04-06T02:19:52;102018.69;;;4.73;100.00
13015;BME280;6573;57.696;11.950;2023-04-06T02:22:20;102019.94;;;4.83;100.00
13015;BME280;6573;57.696;11.950;2023-04-06T02:24:49;102020.09;;;4.65;100.00
13015;BME280;6573;57.696;11.950;2023-04-06T02:27:17;102010.63;;;4.89;100.00
13015;BME280;6573;57.696;11.950;2023-04-06T02:29:46;102021.66;;;5.04;100.00
13015;BME280;6573;57.696;11.950;2023-04-06T02:32:16;102013.94;;;5.30;100.00
13015;BME280;6573;57.696;11.950;2023-04-06T02:34:44;102009.22;;;4.97;100.00
13015;BME280;6573;57.696;11.950;2023-04-06T02:37:13;102013.94;;;4.85;100.00
13015;BME280;6573;57.696;11.950;2023-04-06T02:39:41;102010.88;;;4.95;100.00
13015;BME280;6573;57.696;11.950;2023-04-06T02:42:10;101999.81;;;4.58;100.00
13015;BME280;6573;57.696;11.950;2023-04-06T02:44:38;101997.06;;;4.76;100.00
13015;BME280;6573;57.696;11.950;2023-04-06T02:47:06;102010.28;;;5.02;100.00
13015;BME280;6573;57.696;11.950;2023-04-06T02:49:36;102019.22;;;5.09;100.00
13015;BME280;6573;57.696;11.950;2023-04-06T02:52:05;101938.09;;;4.57;100.00
13015;BME280;6573;57.696;11.950;2023-04-06T02:54:33;101973.66;;;4.77;100.00
13015;BME280;6573;57.696;11.950;2023-04-06T02:57:02;102011.94;;;4.78;100.00
13015;BME280;6573;57.696;11.950;2023-04-06T02:59:31;101967.00;;;4.41;100.00
13015;BME280;6573;57.696;11.950;2023-04-06T03:01:59;102016.53;;;4.63;100.00
13015;BME280;6573;57.696;11.950;2023-04-06T03:04:27;101960.63;;;4.34;100.00
13015;BME280;6573;57.696;11.950;2023-04-06T03:06:57;102013.34;;;4.70;100.00
13015;BME280;6573;57.696;11.950;2023-04-06T03:09:27;102016.28;;;4.57;100.00
13015;BME280;6573;57.696;11.950;2023-04-06T03:11:55;102008.13;;;4.70;100.00
13015;BME280;6573;57.696;11.950;2023-04-06T03:14:24;102016.69;;;4.88;100.00
13015;BME280;6573;57.696;11.950;2023-04-06T03:16:52;102006.25;;;4.66;100.00
13015;BME280;6573;57.696;11.950;2023-04-06T03:19:21;102030.25;;;4.59;100.00
13015;BME280;6573;57.696;11.950;2023-04-06T03:21:49;102028.84;;;4.67;100.00
13015;BME280;6573;57.696;11.950;2023-04-06T03:24:19;102022.84;;;4.90;100.00
13015;BME280;6573;57.696;11.950;2023-04-06T03:26:47;102027.81;;;4.84;100.00
13015;BME280;6573;57.696;11.950;2023-04-06T03:29:16;102026.34;;;4.48;100.00
13015;BME280;6573;57.696;11.950;2023-04-06T03:31:44;102031.69;;;4.51;100.00
13015;BME280;6573;57.696;11.950;2023-04-06T03:34:13;102032.31;;;4.45;100.00
13015;BME280;6573;57.696;11.950;2023-04-06T03:36:42;102018.56;;;4.70;100.00
13015;BME280;6573;57.696;11.950;2023-04-06T03:39:10;102033.69;;;4.58;100.00
13015;BME280;6573;57.696;11.950;2023-04-06T03:41:40;102033.13;;;4.65;100.00
13015;BME280;6573;57.696;11.950;2023-04-06T03:44:08;102017.38;;;4.84;100.00
13015;BME280;6573;57.696;11.950;2023-04-06T03:46:37;102031.66;;;4.94;100.00
13015;BME280;6573;57.696;11.950;2023-04-06T03:49:06;102035.28;;;4.97;100.00
13015;BME280;6573;57.696;11.950;2023-04-06T03:51:34;102019.16;;;4.85;100.00
13015;BME280;6573;57.696;11.950;2023-04-06T03:54:03;102030.34;;;4.83;100.00
13015;BME280;6573;57.696;11.950;2023-04-06T03:56:31;102030.72;;;4.92;100.00
13015;BME280;6573;57.696;11.950;2023-04-06T03:59:01;102020.41;;;4.95;100.00
13015;BME280;6573;57.696;11.950;2023-04-06T04:01:30;102041.44;;;5.21;100.00
13015;BME280;6573;57.696;11.950;2023-04-06T04:03:58;102039.38;;;5.35;100.00
13015;BME280;6573;57.696;11.950;2023-04-06T04:06:27;102034.91;;;5.33;100.00
13015;BME280;6573;57.696;11.950;2023-04-06T04:08:56;102021.44;;;4.98;100.00
13015;BME280;6573;57.696;11.950;2023-04-06T04:11:24;102019.16;;;5.07;100.00
13015;BME280;6573;57.696;11.950;2023-04-06T04:13:53;102044.00;;;5.20;100.00
13015;BME280;6573;57.696;11.950;2023-04-06T04:16:23;102044.53;;;5.11;100.00
13015;BME280;6573;57.696;11.950;2023-04-06T04:18:51;102041.56;;;4.80;100.00
13015;BME280;6573;57.696;11.950;2023-04-06T04:21:20;102046.75;;;4.80;100.00
13015;BME280;6573;57.696;11.950;2023-04-06T04:23:48;102035.41;;;5.00;100.00
13015;BME280;6573;57.696;11.950;2023-04-06T04:26:16;102046.31;;;5.12;100.00
13015;BME280;6573;57.696;11.950;2023-04-06T04:28:44;102025.91;;;4.80;100.00
13015;BME280;6573;57.696;11.950;2023-04-06T04:31:13;102048.84;;;4.89;100.00
13015;BME280;6573;57.696;11.950;2023-04-06T04:33:43;102040.84;;;5.06;100.00
13015;BME280;6573;57.696;11.950;2023-04-06T04:36:12;102040.91;;;5.30;100.00
13015;BME280;6573;57.696;11.950;2023-04-06T04:38:40;102033.50;;;5.41;100.00
13015;BME280;6573;57.696;11.950;2023-04-06T04:41:08;102025.59;;;5.39;100.00
13015;BME280;6573;57.696;11.950;2023-04-06T04:43:37;102042.38;;;5.01;100.00
13015;BME280;6573;57.696;11.950;2023-04-06T04:46:05;102038.22;;;5.29;100.00
13015;BME280;6573;57.696;11.950;2023-04-06T04:48:34;102031.59;;;4.92;100.00
13015;BME280;6573;57.696;11.950;2023-04-06T04:51:04;102041.09;;;5.12;100.00
13015;BME280;6573;57.696;11.950;2023-04-06T04:53:33;102027.41;;;4.96;100.00
13015;BME280;6573;57.696;11.950;2023-04-06T04:56:01;102050.44;;;4.85;100.00
13015;BME280;6573;57.696;11.950;2023-04-06T04:58:30;102042.16;;;4.95;100.00
13015;BME280;6573;57.696;11.950;2023-04-06T05:01:04;102047.84;;;4.85;100.00
13015;BME280;6573;57.696;11.950;2023-04-06T05:03:33;102055.66;;;4.85;100.00
13015;BME280;6573;57.696;11.950;2023-04-06T05:06:07;102020.66;;;4.79;100.00
13015;BME280;6573;57.696;11.950;2023-04-06T05:08:39;102053.34;;;4.93;100.00
13015;BME280;6573;57.696;11.950;2023-04-06T05:11:08;102053.97;;;5.08;100.00
13015;BME280;6573;57.696;11.950;2023-04-06T05:13:37;102056.00;;;4.94;100.00
13015;BME280;6573;57.696;11.950;2023-04-06T05:16:20;102042.56;;;4.84;100.00
13015;BME280;6573;57.696;11.950;2023-04-06T05:18:51;102056.69;;;5.33;100.00
13015;BME280;6573;57.696;11.950;2023-04-06T05:21:21;102054.69;;;5.50;100.00
13015;BME280;6573;57.696;11.950;2023-04-06T05:23:52;102059.47;;;5.38;100.00
13015;BME280;6573;57.696;11.950;2023-04-06T05:26:21;102053.47;;;5.40;100.00
13015;BME280;6573;57.696;11.950;2023-04-06T05:28:50;102058.13;;;5.49;100.00
13015;BME280;6573;57.696;11.950;2023-04-06T05:31:19;101863.56;;;4.38;100.00
13015;BME280;6573;57.696;11.950;2023-04-06T05:33:48;102058.13;;;5.49;100.00
13015;BME280;6573;57.696;11.950;2023-04-06T05:36:17;101972.69;;;5.19;100.00
13015;BME280;6573;57.696;11.950;2023-04-06T05:38:48;102040.25;;;5.36;100.00
13015;BME280;6573;57.696;11.950;2023-04-06T05:41:17;102055.03;;;5.59;100.00
13015;BME280;6573;57.696;11.950;2023-04-06T05:43:46;102040.59;;;5.45;100.00
13015;BME280;6573;57.696;11.950;2023-04-06T05:46:15;102051.59;;;5.60;100.00
13015;BME280;6573;57.696;11.950;2023-04-06T05:48:44;102043.16;;;5.67;100.00
13015;BME280;6573;57.696;11.950;2023-04-06T05:51:13;102043.16;;;5.67;100.00
13015;BME280;6573;57.696;11.950;2023-04-06T05:53:42;101990.59;;;5.10;100.00
13015;BME280;6573;57.696;11.950;2023-04-06T05:56:12;102036.81;;;5.37;100.00
13015;BME280;6573;57.696;11.950;2023-04-06T05:58:41;102010.59;;;5.34;100.00
13015;BME280;6573;57.696;11.950;2023-04-06T06:01:10;102037.03;;;5.66;100.00
13015;BME280;6573;57.696;11.950;2023-04-06T06:03:39;102059.38;;;5.82;100.00
13015;BME280;6573;57.696;11.950;2023-04-06T06:06:14;102045.75;;;5.89;100.00
13015;BME280;6573;57.696;11.950;2023-04-06T06:08:43;102057.66;;;5.82;100.00
13015;BME280;6573;57.696;11.950;2023-04-06T06:11:13;102062.00;;;5.82;100.00
13015;BME280;6573;57.696;11.950;2023-04-06T06:13:41;102057.59;;;5.81;100.00
13015;BME280;6573;57.696;11.950;2023-04-06T06:16:09;102061.66;;;5.95;100.00
13015;BME280;6573;57.696;11.950;2023-04-06T06:18:38;102048.09;;;6.05;100.00
13015;BME280;6573;57.696;11.950;2023-04-06T06:21:06;102050.69;;;5.83;100.00
13015;BME280;6573;57.696;11.950;2023-04-06T06:23:35;102040.31;;;6.08;100.00
13015;BME280;6573;57.696;11.950;2023-04-06T06:26:03;102054.94;;;6.03;100.00
13015;BME280;6573;57.696;11.950;2023-04-06T06:28:33;102056.19;;;5.89;100.00
13015;BME280;6573;57.696;11.950;2023-04-06T06:31:02;102009.50;;;5.51;100.00
13015;BME280;6573;57.696;11.950;2023-04-06T06:33:30;102031.94;;;5.93;100.00
13015;BME280;6573;57.696;11.950;2023-04-06T06:35:59;102052.03;;;6.19;100.00
13015;BME280;6573;57.696;11.950;2023-04-06T06:38:27;102057.03;;;6.13;100.00
13015;BME280;6573;57.696;11.950;2023-04-06T06:40:56;102042.50;;;5.96;100.00
13015;BME280;6573;57.696;11.950;2023-04-06T06:43:24;102075.97;;;6.06;100.00
13015;BME280;6573;57.696;11.950;2023-04-06T06:45:54;102057.28;;;6.19;100.00
13015;BME280;6573;57.696;11.950;2023-04-06T06:48:22;102020.25;;;5.83;100.00
13015;BME280;6573;57.696;11.950;2023-04-06T06:50:51;102054.94;;;6.03;100.00
13015;BME280;6573;57.696;11.950;2023-04-06T06:53:20;102063.13;;;6.12;100.00
13015;BME280;6573;57.696;11.950;2023-04-06T06:55:48;102034.81;;;6.24;100.00
13015;BME280;6573;57.696;11.950;2023-04-06T06:58:18;102065.19;;;6.47;100.00
13015;BME280;6573;57.696;11.950;2023-04-06T07:00:47;101987.66;;;6.21;100.00
13015;BME280;6573;57.696;11.950;2023-04-06T07:03:17;102062.75;;;6.52;100.00
13015;BME280;6573;57.696;11.950;2023-04-06T07:05:46;102058.50;;;6.56;100.00
13015;BME280;6573;57.696;11.950;2023-04-06T07:08:20;102063.03;;;6.34;100.00
13015;BME280;6573;57.696;11.950;2023-04-06T07:10:50;102010.03;;;6.13;100.00
13015;BME280;6573;57.696;11.950;2023-04-06T07:13:19;102056.22;;;6.39;100.00
13015;BME280;6573;57.696;11.950;2023-04-06T07:15:50;102056.75;;;6.55;100.00
13015;BME280;6573;57.696;11.950;2023-04-06T07:18:20;101993.94;;;6.26;100.00
13015;BME280;6573;57.696;11.950;2023-04-06T07:20:49;101991.81;;;6.15;100.00
13015;BME280;6573;57.696;11.950;2023-04-06T07:23:18;102058.41;;;6.52;100.00
13015;BME280;6573;57.696;11.950;2023-04-06T07:25:47;102068.25;;;6.60;100.00
13015;BME280;6573;57.696;11.950;2023-04-06T07:28:17;102059.75;;;6.67;100.00
13015;BME280;6573;57.696;11.950;2023-04-06T07:30:49;102016.69;;;6.56;100.00
13015;BME280;6573;57.696;11.950;2023-04-06T07:33:20;102065.53;;;6.57;100.00
13015;BME280;6573;57.696;11.950;2023-04-06T07:35:49;102072.63;;;6.61;100.00
13015;BME280;6573;57.696;11.950;2023-04-06T07:38:18;102075.00;;;6.80;100.00
13015;BME280;6573;57.696;11.950;2023-04-06T07:40:46;102072.44;;;6.81;100.00
13015;BME280;6573;57.696;11.950;2023-04-06T07:43:16;102067.78;;;6.73;100.00
13015;BME280;6573;57.696;11.950;2023-04-06T07:45:44;102075.47;;;6.41;100.00
13015;BME280;6573;57.696;11.950;2023-04-06T07:48:13;102050.16;;;6.15;100.00
13015;BME280;6573;57.696;11.950;2023-04-06T07:50:43;102072.88;;;6.43;100.00
13015;BME280;6573;57.696;11.950;2023-04-06T07:53:12;102049.50;;;6.47;100.00
13015;BME280;6573;57.696;11.950;2023-04-06T07:55:40;102053.91;;;6.48;100.00
13015;BME280;6573;57.696;11.950;2023-04-06T07:58:09;102064.78;;;6.35;100.00
13015;BME280;6573;57.696;11.950;2023-04-06T08:00:37;102059.69;;;6.65;100.00
13015;BME280;6573;57.696;11.950;2023-04-06T08:03:06;102071.03;;;6.66;100.00
13015;BME280;6573;57.696;11.950;2023-04-06T08:05:34;102067.75;;;6.71;100.00
13015;BME280;6573;57.696;11.950;2023-04-06T08:08:04;102065.31;;;6.50;100.00
13015;BME280;6573;57.696;11.950;2023-04-06T08:10:33;102072.94;;;6.70;100.00
13015;BME280;6573;57.696;11.950;2023-04-06T08:13:01;102042.94;;;6.59;100.00
13015;BME280;6573;57.696;11.950;2023-04-06T08:15:30;102079.63;;;6.62;100.00
13015;BME280;6573;57.696;11.950;2023-04-06T08:17:59;102079.69;;;6.63;100.00
13015;BME280;6573;57.696;11.950;2023-04-06T08:20:28;102076.66;;;6.78;100.00
13015;BME280;6573;57.696;11.950;2023-04-06T08:22:57;102081.41;;;6.63;100.00
13015;BME280;6573;57.696;11.950;2023-04-06T08:25:27;102085.16;;;6.71;100.00
13015;BME280;6573;57.696;11.950;2023-04-06T08:28:05;102082.50;;;6.96;100.00
13015;BME280;6573;57.696;11.950;2023-04-06T08:30:34;102071.84;;;6.90;100.00
13015;BME280;6573;57.696;11.950;2023-04-06T08:33:02;102088.22;;;7.11;100.00
13015;BME280;6573;57.696;11.950;2023-04-06T08:35:32;102053.88;;;7.00;100.00
13015;BME280;6573;57.696;11.950;2023-04-06T08:38:00;102089.25;;;7.44;100.00
13015;BME280;6573;57.696;11.950;2023-04-06T08:40:35;102090.47;;;7.55;100.00
13015;BME280;6573;57.696;11.950;2023-04-06T08:43:07;102088.84;;;7.59;100.00
13015;BME280;6573;57.696;11.950;2023-04-06T08:45:38;102090.78;;;7.66;100.00
13015;BME280;6573;57.696;11.950;2023-04-06T08:48:08;102089.91;;;7.37;100.00
13015;BME280;6573;57.696;11.950;2023-04-06T08:50:38;102091.06;;;7.47;100.00
13015;BME280;6573;57.696;11.950;2023-04-06T08:53:07;102101.44;;;7.72;100.00
13015;BME280;6573;57.696;11.950;2023-04-06T08:55:38;102096.41;;;7.79;100.00
13015;BME280;6573;57.696;11.950;2023-04-06T08:58:07;102083.16;;;7.73;100.00
13015;BME280;6573;57.696;11.950;2023-04-06T09:00:38;102088.09;;;7.64;100.00
13015;BME280;6573;57.696;11.950;2023-04-06T09:03:08;102101.19;;;7.64;100.00
13015;BME280;6573;57.696;11.950;2023-04-06T09:05:38;102110.50;;;7.53;100.00
13015;BME280;6573;57.696;11.950;2023-04-06T09:08:07;102093.06;;;7.83;100.00
13015;BME280;6573;57.696;11.950;2023-04-06T09:10:40;102096.16;;;8.02;100.00
13015;BME280;6573;57.696;11.950;2023-04-06T09:13:09;102104.25;;;8.09;100.00
13015;BME280;6573;57.696;11.950;2023-04-06T09:15:37;102080.72;;;8.11;100.00
13015;BME280;6573;57.696;11.950;2023-04-06T09:18:07;102075.53;;;8.14;100.00
13015;BME280;6573;57.696;11.950;2023-04-06T09:20:35;102057.47;;;8.23;100.00
13015;BME280;6573;57.696;11.950;2023-04-06T09:23:04;102090.66;;;8.24;100.00
13015;BME280;6573;57.696;11.950;2023-04-06T09:25:33;102104.09;;;8.33;100.00
13015;BME280;6573;57.696;11.950;2023-04-06T09:28:04;102092.69;;;8.65;100.00
13015;BME280;6573;57.696;11.950;2023-04-06T09:30:34;102105.41;;;8.84;100.00
13015;BME280;6573;57.696;11.950;2023-04-06T09:33:05;102099.34;;;8.87;100.00
13015;BME280;6573;57.696;11.950;2023-04-06T09:35:33;102056.63;;;8.57;100.00
13015;BME280;6573;57.696;11.950;2023-04-06T09:38:10;102110.94;;;8.96;100.00
13015;BME280;6573;57.696;11.950;2023-04-06T09:40:50;102066.94;;;8.85;100.00
13015;BME280;6573;57.696;11.950;2023-04-06T09:43:29;102107.00;;;9.13;100.00
13015;BME280;6573;57.696;11.950;2023-04-06T09:46:00;102113.03;;;9.09;100.00
13015;BME280;6573;57.696;11.950;2023-04-06T09:48:33;102088.53;;;9.10;100.00
13015;BME280;6573;57.696;11.950;2023-04-06T09:51:03;102116.72;;;9.18;100.00
13015;BME280;6573;57.696;11.950;2023-04-06T09:53:36;102106.34;;;8.86;100.00
13015;BME280;6573;57.696;11.950;2023-04-06T09:56:09;102098.25;;;8.77;100.00
13015;BME280;6573;57.696;11.950;2023-04-06T09:58:43;102096.38;;;8.73;100.00
13015;BME280;6573;57.696;11.950;2023-04-06T10:01:15;102112.38;;;8.82;100.00
13015;BME280;6573;57.696;11.950;2023-04-06T10:03:54;102109.38;;;9.03;100.00
13015;BME280;6573;57.696;11.950;2023-04-06T10:06:31;102111.69;;;9.27;100.00
13015;BME280;6573;57.696;11.950;2023-04-06T10:09:03;102072.50;;;8.98;100.00
13015;BME280;6573;57.696;11.950;2023-04-06T10:11:33;102117.03;;;9.30;100.00
13015;BME280;6573;57.696;11.950;2023-04-06T10:14:04;102116.94;;;9.27;100.00
13015;BME280;6573;57.696;11.950;2023-04-06T10:16:33;102089.69;;;9.22;100.00
13015;BME280;6573;57.696;11.950;2023-04-06T10:19:09;102076.97;;;9.40;100.00
13015;BME280;6573;57.696;11.950;2023-04-06T10:21:41;102055.19;;;9.45;100.00
13015;BME280;6573;57.696;11.950;2023-04-06T10:24:13;102104.75;;;9.69;100.00
13015;BME280;6573;57.696;11.950;2023-04-06T10:26:43;102088.09;;;9.67;100.00
13015;BME280;6573;57.696;11.950;2023-04-06T10:29:13;102106.88;;;9.87;100.00
13015;BME280;6573;57.696;11.950;2023-04-06T10:31:42;102100.66;;;9.83;100.00
13015;BME280;6573;57.696;11.950;2023-04-06T10:34:11;102076.94;;;9.80;100.00
13015;BME280;6573;57.696;11.950;2023-04-06T10:36:41;102101.22;;;10.10;100.00
13015;BME280;6573;57.696;11.950;2023-04-06T10:39:10;102106.81;;;10.25;100.00
13015;BME280;6573;57.696;11.950;2023-04-06T10:41:41;102099.72;;;10.21;100.00
13015;BME280;6573;57.696;11.950;2023-04-06T10:44:20;102114.09;;;10.38;100.00
13015;BME280;6573;57.696;11.950;2023-04-06T10:46:53;102080.50;;;10.25;100.00
13015;BME280;6573;57.696;11.950;2023-04-06T10:49:24;102050.41;;;10.11;100.00
13015;BME280;6573;57.696;11.950;2023-04-06T10:52:13;102109.44;;;10.24;100.00
13015;BME280;6573;57.696;11.950;2023-04-06T10:54:42;102004.16;;;9.76;100.00
13015;BME280;6573;57.696;11.950;2023-04-06T10:57:14;102113.28;;;10.43;100.00
13015;BME280;6573;57.696;11.950;2023-04-06T10:59:45;102110.91;;;10.58;100.00
13015;BME280;6573;57.696;11.950;2023-04-06T11:02:20;102113.63;;;10.61;100.00
13015;BME280;6573;57.696;11.950;2023-04-06T11:04:56;102102.25;;;10.62;100.00
13015;BME280;6573;57.696;11.950;2023-04-06T11:07:26;102106.03;;;10.79;100.00
13015;BME280;6573;57.696;11.950;2023-04-06T11:09:56;102059.97;;;10.53;100.00
13015;BME280;6573;57.696;11.950;2023-04-06T11:12:43;102102.34;;;10.68;100.00
13015;BME280;6573;57.696;11.950;2023-04-06T11:15:15;102019.88;;;10.16;100.00
13015;BME280;6573;57.696;11.950;2023-04-06T11:17:46;102074.16;;;10.61;100.00
13015;BME280;6573;57.696;11.950;2023-04-06T11:20:16;102109.59;;;10.81;100.00
13015;BME280;6573;57.696;11.950;2023-04-06T11:22:50;102104.81;;;10.60;100.00
13015;BME280;6573;57.696;11.950;2023-04-06T11:25:19;102105.09;;;10.77;100.00
13015;BME280;6573;57.696;11.950;2023-04-06T11:27:47;102077.94;;;10.78;100.00
13015;BME280;6573;57.696;11.950;2023-04-06T11:30:18;102076.69;;;11.10;100.00
13015;BME280;6573;57.696;11.950;2023-04-06T11:32:47;102075.19;;;11.27;100.00
13015;BME280;6573;57.696;11.950;2023-04-06T11:35:20;102093.00;;;11.45;100.00
13015;BME280;6573;57.696;11.950;2023-04-06T11:37:49;102114.25;;;11.57;100.00
13015;BME280;6573;57.696;11.950;2023-04-06T11:40:21;102094.28;;;11.71;100.00
13015;BME280;6573;57.696;11.950;2023-04-06T11:42:53;102100.91;;;11.43;100.00
13015;BME280;6573;57.696;11.950;2023-04-06T11:45:25;102101.72;;;11.39;100.00
13015;BME280;6573;57.696;11.950;2023-04-06T11:47:58;102103.53;;;11.43;100.00
13015;BME280;6573;57.696;11.950;2023-04-06T11:50:32;102105.72;;;11.72;100.00
13015;BME280;6573;57.696;11.950;2023-04-06T11:53:02;102110.38;;;11.94;100.00
13015;BME280;6573;57.696;11.950;2023-04-06T11:55:37;102079.09;;;11.53;100.00
13015;BME280;6573;57.696;11.950;2023-04-06T11:58:06;102125.31;;;11.92;100.00
13015;BME280;6573;57.696;11.950;2023-04-06T12:00:36;102115.75;;;12.00;100.00
13015;BME280;6573;57.696;11.950;2023-04-06T12:03:05;102084.84;;;11.90;100.00
13015;BME280;6573;57.696;11.950;2023-04-06T12:05:34;102122.84;;;12.07;100.00
13015;BME280;6573;57.696;11.950;2023-04-06T12:08:02;102120.31;;;12.13;100.00
13015;BME280;6573;57.696;11.950;2023-04-06T12:10:31;102056.50;;;11.71;100.00
13015;BME280;6573;57.696;11.950;2023-04-06T12:12:59;102108.34;;;12.45;100.00
13015;BME280;6573;57.696;11.950;2023-04-06T12:15:29;102104.78;;;12.43;100.00
13015;BME280;6573;57.696;11.950;2023-04-06T12:17:59;102090.38;;;12.11;100.00
13015;BME280;6573;57.696;11.950;2023-04-06T12:20:28;102110.06;;;12.43;100.00
13015;BME280;6573;57.696;11.950;2023-04-06T12:22:56;102112.00;;;12.58;100.00
13015;BME280;6573;57.696;11.950;2023-04-06T12:25:25;102115.59;;;12.67;100.00
13015;BME280;6573;57.696;11.950;2023-04-06T12:27:55;102108.63;;;12.72;100.00
13015;BME280;6573;57.696;11.950;2023-04-06T12:30:24;102121.03;;;12.82;100.00
13015;BME280;6573;57.696;11.950;2023-04-06T12:32:53;102078.66;;;12.67;100.00
13015;BME280;6573;57.696;11.950;2023-04-06T12:35:23;102110.47;;;12.82;100.00
13015;BME280;6573;57.696;11.950;2023-04-06T12:37:52;102099.97;;;12.91;100.00
13015;BME280;6573;57.696;11.950;2023-04-06T12:40:21;102119.28;;;12.84;100.00
13015;BME280;6573;57.696;11.950;2023-04-06T12:42:52;102121.81;;;12.75;100.00
13015;BME280;6573;57.696;11.950;2023-04-06T12:45:23;102115.66;;;12.73;100.00
13015;BME280;6573;57.696;11.950;2023-04-06T12:47:54;102119.09;;;12.66;100.00
13015;BME280;6573;57.696;11.950;2023-04-06T12:50:24;102124.47;;;12.72;100.00
13015;BME280;6573;57.696;11.950;2023-04-06T12:52:53;102107.69;;;12.67;100.00
13015;BME280;6573;57.696;11.950;2023-04-06T12:55:21;102119.13;;;12.69;100.00
13015;BME280;6573;57.696;11.950;2023-04-06T12:57:50;102113.84;;;12.69;100.00
13015;BME280;6573;57.696;11.950;2023-04-06T13:00:20;102102.34;;;12.61;100.00
13015;BME280;6573;57.696;11.950;2023-04-06T13:02:53;102123.09;;;12.26;100.00